Time;durP1;ratioP1;P1;durP2;ratioP2;P2;SDS_P1;SDS_P2;PMS_P1;PMS_P2;Temp;Humidity;BMP_temperature;BMP_pressure;BME280_temperature;BME280_humidity;BME280_pressure;Samples;Min_cycle;Max_cycle;Signal;HPM_P1;HPM_P2
2023/04/14 00:00:25;;;;;;;6.30;2.80;;;12.20;75.30;;;;;;4954797;29;20046;-84
2023/04/14 00:02:51;;;;;;;6.30;2.88;;;12.20;75.30;;;;;;4937943;29;20453;-86
2023/04/14 00:05:17;;;;;;;6.10;2.80;;;12.20;75.20;;;;;;4944800;29;20055;-86
2023/04/14 00:07:42;;;;;;;6.38;2.97;;;12.20;75.30;;;;;;4946882;29;20136;-86
2023/04/14 00:10:08;;;;;;;5.40;2.88;;;12.20;75.20;;;;;;4947846;29;20091;-85
2023/04/14 00:12:33;;;;;;;7.32;3.17;;;12.20;75.20;;;;;;4946783;29;20027;-86
2023/04/14 00:14:59;;;;;;;6.20;2.78;;;12.20;75.20;;;;;;4946788;29;20070;-86
2023/04/14 00:17:24;;;;;;;6.55;3.13;;;12.20;75.10;;;;;;4945971;29;20027;-86
2023/04/14 00:19:50;;;;;;;5.03;2.60;;;12.20;75.20;;;;;;4946466;29;20027;-85
2023/04/14 00:22:16;;;;;;;5.35;2.78;;;12.20;75.20;;;;;;4962972;29;20027;-85
2023/04/14 00:24:42;;;;;;;6.45;2.88;;;12.20;75.10;;;;;;4945749;29;20062;-85
2023/04/14 00:27:11;;;;;;;6.32;2.70;;;12.20;75.10;;;;;;4963077;29;20049;-85
2023/04/14 00:29:39;;;;;;;7.65;3.15;;;12.20;75.10;;;;;;4944596;29;20090;-85
2023/04/14 00:32:05;;;;;;;5.90;2.90;;;12.20;75.10;;;;;;4944517;29;20037;-85
2023/04/14 00:34:31;;;;;;;6.43;2.85;;;12.20;75.10;;;;;;4961832;29;20034;-86
2023/04/14 00:36:57;;;;;;;6.70;3.30;;;12.20;75.00;;;;;;4961998;29;20023;-86
2023/04/14 00:39:22;;;;;;;5.95;2.88;;;12.20;75.10;;;;;;4961643;29;20024;-85
2023/04/14 00:41:48;;;;;;;6.05;2.83;;;12.20;75.00;;;;;;4944019;29;20027;-85
2023/04/14 00:44:13;;;;;;;6.55;3.30;;;12.20;74.90;;;;;;4960938;29;20027;-85
2023/04/14 00:46:40;;;;;;;6.65;3.30;;;12.20;74.90;;;;;;4943260;29;20028;-85
2023/04/14 00:49:06;;;;;;;6.43;3.40;;;12.20;74.90;;;;;;4943675;29;20031;-85
2023/04/14 00:51:33;;;;;;;7.68;3.40;;;12.20;75.00;;;;;;4942509;29;20115;-86
2023/04/14 00:54:01;;;;;;;6.45;3.22;;;12.20;74.90;;;;;;4960521;29;20539;-84
2023/04/14 00:56:28;;;;;;;6.57;3.45;;;12.20;74.90;;;;;;4942218;29;20031;-85
2023/04/14 00:58:54;;;;;;;7.03;3.53;;;12.20;75.00;;;;;;4950931;29;20023;-86
2023/04/14 01:01:20;;;;;;;6.22;3.53;;;12.20;74.90;;;;;;4969506;29;20114;-85
2023/04/14 01:03:46;;;;;;;6.88;3.50;;;12.20;75.00;;;;;;4970318;29;20388;-86
2023/04/14 01:06:12;;;;;;;6.60;3.53;;;12.20;74.90;;;;;;4952191;29;20027;-84
2023/04/14 01:08:37;;;;;;;6.40;3.35;;;12.20;75.00;;;;;;4969422;29;20047;-86
2023/04/14 01:11:29;;;;;;;7.40;3.80;;;12.20;74.90;;;;;;4950935;29;20118;-85
2023/04/14 01:14:41;;;;;;;7.05;3.47;;;12.20;75.40;;;;;;4967891;29;20023;-85
2023/04/14 01:17:18;;;;;;;6.97;3.72;;;12.20;74.90;;;;;;4950597;29;20023;-85
2023/04/14 01:19:49;;;;;;;5.35;3.42;;;12.20;74.90;;;;;;4967543;29;20055;-85
2023/04/14 01:22:17;;;;;;;6.63;3.78;;;12.20;74.90;;;;;;4949838;29;20038;-85
2023/04/14 01:25:07;;;;;;;6.85;3.70;;;12.20;74.80;;;;;;4948737;29;20046;-85
2023/04/14 01:27:50;;;;;;;7.18;3.90;;;12.20;74.80;;;;;;4966395;29;20081;-85
2023/04/14 01:30:42;;;;;;;7.82;4.07;;;12.20;74.90;;;;;;4947010;29;20123;-85
2023/04/14 01:33:11;;;;;;;6.00;3.53;;;12.20;74.90;;;;;;4946580;29;20034;-86
2023/04/14 01:35:41;;;;;;;6.65;3.95;;;12.20;74.80;;;;;;4946029;29;20027;-86
2023/04/14 01:38:11;;;;;;;6.65;4.13;;;12.10;74.70;;;;;;4947345;29;20677;-85
2023/04/14 01:40:40;;;;;;;6.53;3.92;;;12.20;74.80;;;;;;4965268;29;20685;-84
2023/04/14 01:43:10;;;;;;;7.53;4.07;;;12.20;74.80;;;;;;4941176;29;20023;-84
2023/04/14 01:45:45;;;;;;;6.88;4.35;;;12.20;74.70;;;;;;4941075;29;20039;-85
2023/04/14 01:48:11;;;;;;;7.22;4.32;;;12.20;74.80;;;;;;4940848;29;20027;-85
2023/04/14 01:50:40;;;;;;;7.20;4.05;;;12.20;74.80;;;;;;4939410;29;20102;-84
2023/04/14 01:53:07;;;;;;;7.25;4.25;;;12.20;74.70;;;;;;4942954;29;20051;-84
2023/04/14 01:55:36;;;;;;;7.38;4.10;;;12.20;74.80;;;;;;4960500;29;20020;-84
2023/04/14 01:58:04;;;;;;;8.13;4.65;;;12.10;74.70;;;;;;4946025;29;20055;-84
2023/04/14 02:00:31;;;;;;;6.72;4.20;;;12.20;74.80;;;;;;4944893;29;20042;-84
2023/04/14 02:02:56;;;;;;;7.80;4.43;;;12.20;74.80;;;;;;4944426;29;20047;-84
2023/04/14 02:05:24;;;;;;;6.82;4.25;;;12.20;74.70;;;;;;4944145;29;20031;-84
2023/04/14 02:07:52;;;;;;;7.32;4.65;;;12.20;74.70;;;;;;4943683;29;20043;-84
2023/04/14 02:10:20;;;;;;;7.60;4.20;;;12.10;74.60;;;;;;4942529;29;20027;-84
2023/04/14 02:12:49;;;;;;;7.65;4.55;;;12.20;74.60;;;;;;4942150;29;20080;-84
2023/04/14 02:15:17;;;;;;;8.05;4.60;;;12.10;74.50;;;;;;4939500;29;20030;-84
2023/04/14 02:17:47;;;;;;;6.95;4.35;;;12.10;74.60;;;;;;4944139;29;20026;-84
2023/04/14 02:20:13;;;;;;;6.60;4.45;;;12.10;74.60;;;;;;4961046;29;20484;-83
2023/04/14 02:22:39;;;;;;;7.18;4.32;;;12.10;74.60;;;;;;4961013;29;20078;-83
2023/04/14 02:25:05;;;;;;;8.10;4.70;;;12.10;74.60;;;;;;4939556;29;20059;-83
2023/04/14 02:27:45;;;;;;;7.82;4.57;;;12.10;74.60;;;;;;4935252;29;20456;-84
2023/04/14 02:30:18;;;;;;;8.93;4.90;;;12.10;74.50;;;;;;4949899;29;20034;-83
2023/04/14 02:32:48;;;;;;;10.15;5.32;;;12.10;74.50;;;;;;4941905;29;20502;-84
2023/04/14 02:35:17;;;;;;;10.57;5.53;;;12.10;73.50;;;;;;4959379;29;20054;-84
2023/04/14 02:37:47;;;;;;;17.90;6.38;;;12.10;73.20;;;;;;4939401;29;20028;-84
2023/04/14 02:40:23;;;;;;;15.90;6.30;;;12.10;72.20;;;;;;4940507;29;20031;-84
2023/04/14 02:42:56;;;;;;;18.23;6.40;;;12.10;71.90;;;;;;4941247;29;20031;-85
2023/04/14 02:45:26;;;;;;;11.95;5.80;;;12.10;72.10;;;;;;4958201;29;20102;-85
2023/04/14 02:48:06;;;;;;;12.40;6.18;;;12.10;71.30;;;;;;4940406;29;20035;-87
2023/04/14 02:50:34;;;;;;;13.90;6.57;;;12.00;71.10;;;;;;4939265;29;20034;-87
2023/04/14 02:53:02;;;;;;;9.52;6.30;;;12.00;70.60;;;;;;4940846;29;20038;-84
2023/04/14 02:55:29;;;;;;;11.35;6.82;;;12.00;70.30;;;;;;4940008;29;20023;-87
2023/04/14 02:57:55;;;;;;;14.88;6.38;;;12.00;70.30;;;;;;4940650;29;20054;-87
2023/04/14 03:00:22;;;;;;;11.25;6.25;;;12.00;70.70;;;;;;4938603;29;20503;-86
2023/04/14 03:02:49;;;;;;;11.27;6.13;;;12.00;70.20;;;;;;4938586;29;20031;-87
2023/04/14 03:05:15;;;;;;;10.40;6.57;;;12.00;70.20;;;;;;4955833;29;20109;-86
2023/04/14 03:07:45;;;;;;;10.93;6.40;;;12.00;70.20;;;;;;4939971;29;20081;-87
2023/04/14 03:10:11;;;;;;;10.75;6.78;;;12.00;70.20;;;;;;4938037;29;20023;-85
2023/04/14 03:12:38;;;;;;;8.73;5.95;;;12.00;70.00;;;;;;4938378;29;20023;-86
2023/04/14 03:15:06;;;;;;;10.20;6.72;;;12.00;70.20;;;;;;4939083;29;20023;-86
2023/04/14 03:17:32;;;;;;;8.80;6.10;;;12.00;69.80;;;;;;4938981;29;20055;-86
2023/04/14 03:19:59;;;;;;;9.68;6.30;;;12.00;69.90;;;;;;4938314;28;20404;-86
2023/04/14 03:22:28;;;;;;;10.75;6.30;;;12.00;70.10;;;;;;4938647;29;20054;-86
2023/04/14 03:24:57;;;;;;;8.32;6.22;;;12.00;69.90;;;;;;4938322;29;20031;-86
2023/04/14 03:27:28;;;;;;;8.18;6.45;;;12.00;70.00;;;;;;4937921;29;20658;-86
2023/04/14 03:29:59;;;;;;;10.98;6.82;;;12.00;69.80;;;;;;4938004;29;20481;-86
2023/04/14 03:32:32;;;;;;;8.93;6.20;;;12.00;69.50;;;;;;4938090;29;20033;-86
2023/04/14 03:35:00;;;;;;;8.93;6.63;;;12.00;69.50;;;;;;4938028;29;20020;-86
2023/04/14 03:37:27;;;;;;;9.30;6.65;;;12.00;69.50;;;;;;4954943;29;20035;-86
2023/04/14 03:39:59;;;;;;;9.23;6.10;;;12.00;69.40;;;;;;4955248;29;20102;-85
2023/04/14 03:42:27;;;;;;;10.80;6.38;;;11.90;69.40;;;;;;4937950;29;20461;-85
2023/04/14 03:44:55;;;;;;;10.80;6.43;;;11.90;69.40;;;;;;4938131;29;20032;-86
2023/04/14 03:47:23;;;;;;;11.90;6.90;;;11.90;69.50;;;;;;4944172;29;20027;-89
2023/04/14 03:49:53;;;;;;;9.02;6.45;;;11.90;69.30;;;;;;4948502;29;20397;-87
2023/04/14 03:52:21;;;;;;;8.18;6.13;;;11.90;69.50;;;;;;4947005;29;20089;-87
2023/04/14 03:54:50;;;;;;;9.23;6.20;;;11.90;69.30;;;;;;4944577;29;20027;-87
2023/04/14 03:57:17;;;;;;;10.52;6.53;;;11.90;69.20;;;;;;4944164;29;20058;-87
2023/04/14 03:59:45;;;;;;;10.07;6.90;;;11.90;69.20;;;;;;4944995;29;20121;-87
2023/04/14 04:02:11;;;;;;;9.55;6.53;;;11.90;69.20;;;;;;4944806;29;20038;-87
2023/04/14 04:04:37;;;;;;;10.27;6.18;;;11.90;69.20;;;;;;4960866;29;20027;-87
2023/04/14 04:07:06;;;;;;;8.02;5.93;;;11.90;69.20;;;;;;4943506;29;20042;-86
2023/04/14 04:09:33;;;;;;;10.23;6.55;;;11.90;69.10;;;;;;4940903;29;20031;-84
2023/04/14 04:12:01;;;;;;;8.88;6.15;;;11.90;69.10;;;;;;4939731;29;20023;-85
2023/04/14 04:14:28;;;;;;;9.77;6.35;;;11.90;69.10;;;;;;4939411;29;20031;-87
2023/04/14 04:16:55;;;;;;;9.45;6.72;;;11.80;69.10;;;;;;4938219;29;20035;-86
2023/04/14 04:19:38;;;;;;;8.60;6.32;;;13.00;69.60;;;;;;4935488;29;20046;-86
2023/04/14 04:22:05;;;;;;;9.18;6.68;;;11.90;69.10;;;;;;4936475;29;20110;-86
2023/04/14 04:24:39;;;;;;;9.88;6.35;;;13.40;69.80;;;;;;4947944;28;20019;-86
2023/04/14 04:27:07;;;;;;;10.20;6.70;;;13.50;69.90;;;;;;4949825;29;20812;-87
2023/04/14 04:29:38;;;;;;;9.70;6.18;;;11.70;68.80;;;;;;4940010;29;20117;-86
2023/04/14 04:32:10;;;;;;;8.90;6.10;;;13.30;69.60;;;;;;4935464;29;20115;-86
2023/04/14 04:34:40;;;;;;;9.70;6.30;;;11.80;68.60;;;;;;4940254;29;20588;-85
2023/04/14 04:37:06;;;;;;;8.45;6.32;;;11.80;68.90;;;;;;4941202;29;20117;-87
2023/04/14 04:39:36;;;;;;;8.88;6.47;;;12.00;68.90;;;;;;4942430;29;20063;-88
2023/04/14 04:42:06;;;;;;;9.40;6.32;;;11.80;68.50;;;;;;4948843;29;20042;-87
2023/04/14 04:44:33;;;;;;;9.52;6.80;;;11.80;68.90;;;;;;4937830;29;20031;-86
2023/04/14 04:46:59;;;;;;;9.05;6.30;;;12.50;69.10;;;;;;4942043;29;20126;-87
2023/04/14 04:49:26;;;;;;;9.27;6.57;;;12.30;68.90;;;;;;4960343;28;20126;-86
2023/04/14 04:51:55;;;;;;;11.45;6.57;;;11.80;68.70;;;;;;4960917;28;20031;-88
2023/04/14 04:54:26;;;;;;;10.45;6.43;;;12.50;69.10;;;;;;4961617;28;20082;-88
2023/04/14 04:56:56;;;;;;;8.10;5.80;;;12.90;69.40;;;;;;4961618;28;20388;-85
2023/04/14 04:59:25;;;;;;;10.77;6.70;;;11.70;68.60;;;;;;4961702;28;20027;-87
2023/04/14 05:01:51;;;;;;;9.38;6.38;;;11.80;68.90;;;;;;4961667;28;20084;-87
2023/04/14 05:04:16;;;;;;;8.48;6.07;;;11.90;68.90;;;;;;4961891;28;20650;-86
2023/04/14 05:06:42;;;;;;;10.02;6.57;;;13.20;69.50;;;;;;4961024;28;20042;-87
2023/04/14 05:09:08;;;;;;;8.23;6.10;;;11.90;68.60;;;;;;4959082;28;20031;-87
2023/04/14 05:11:34;;;;;;;8.85;6.13;;;12.40;69.00;;;;;;4958380;28;20511;-84
2023/04/14 05:14:00;;;;;;;8.13;6.28;;;12.00;68.70;;;;;;4962040;28;20031;-87
2023/04/14 05:16:27;;;;;;;9.73;6.70;;;12.40;68.70;;;;;;4960602;28;20126;-86
2023/04/14 05:19:19;;;;;;;11.15;6.50;;;12.00;68.60;;;;;;4958978;28;20026;-87
2023/04/14 05:21:44;;;;;;;10.60;6.43;;;11.60;68.20;;;;;;4947343;29;20035;-85
2023/04/14 05:24:12;;;;;;;11.20;6.60;;;11.80;69.00;;;;;;4940450;29;20492;-83
2023/04/14 05:26:40;;;;;;;12.70;6.28;;;12.30;68.90;;;;;;4939208;29;20027;-83
2023/04/14 05:29:14;;;;;;;12.40;6.32;;;12.00;68.30;;;;;;4938478;29;20149;-85
2023/04/14 05:31:40;;;;;;;17.77;8.02;;;11.70;68.40;;;;;;4942975;29;20350;-82
2023/04/14 05:34:09;;;;;;;14.27;7.50;;;11.90;68.50;;;;;;4941765;29;20031;-86
2023/04/14 05:47:14;;;;;;;11.13;7.07;;;11.90;69.40;;;;;;5031909;27;3034547;-83
2023/04/14 05:49:40;;;;;;;10.27;7.03;;;12.00;68.80;;;;;;5103842;28;20416;-86
2023/04/14 05:56:25;;;;;;;10.27;6.93;;;11.90;69.10;;;;;;5039080;28;20029;-85
2023/04/14 06:02:09;;;;;;;12.52;7.50;;;11.80;69.30;;;;;;5041902;28;20267;-87
2023/04/14 06:20:53;;;;;;;12.82;7.03;;;12.10;69.30;;;;;;5046701;28;20045;-87
2023/04/14 06:23:20;;;;;;;12.82;6.72;;;12.10;69.20;;;;;;5046991;28;20347;-86
2023/04/14 06:25:46;;;;;;;13.93;7.40;;;12.10;69.20;;;;;;5031352;28;20057;-87
2023/04/14 06:28:12;;;;;;;11.18;7.32;;;12.10;69.20;;;;;;5048993;28;20028;-87
2023/04/14 06:30:38;;;;;;;11.50;7.20;;;12.20;69.30;;;;;;5031658;28;20029;-86
2023/04/14 06:33:03;;;;;;;12.05;7.07;;;12.20;69.20;;;;;;5031620;28;20482;-86
2023/04/14 06:35:33;;;;;;;11.70;6.90;;;12.20;69.10;;;;;;5048442;28;20474;-86
2023/04/14 06:38:00;;;;;;;12.90;6.85;;;12.20;69.20;;;;;;5030655;28;20029;-87
2023/04/14 06:40:25;;;;;;;9.57;6.50;;;12.20;69.20;;;;;;5030212;28;20075;-86
2023/04/14 06:42:51;;;;;;;9.82;6.60;;;12.30;69.10;;;;;;5030676;28;20424;-87
2023/04/14 06:45:16;;;;;;;10.68;6.68;;;12.30;69.00;;;;;;5030337;28;20063;-86
2023/04/14 06:47:42;;;;;;;8.93;6.55;;;12.30;68.90;;;;;;5030279;28;20375;-86
2023/04/14 06:50:08;;;;;;;9.45;6.22;;;12.30;69.10;;;;;;5031573;28;20052;-86
2023/04/14 06:52:33;;;;;;;9.10;5.88;;;12.30;69.30;;;;;;5030747;28;20032;-86
2023/04/14 06:54:59;;;;;;;9.90;6.15;;;12.40;69.20;;;;;;5031099;28;20053;-86
2023/04/14 06:57:25;;;;;;;9.25;5.82;;;12.40;69.50;;;;;;5041816;28;20017;-86
2023/04/14 06:59:51;;;;;;;8.70;5.65;;;12.50;69.50;;;;;;5017336;28;20021;-86
2023/04/14 07:02:16;;;;;;;8.60;5.90;;;12.50;69.60;;;;;;5034768;28;20018;-87
2023/04/14 07:04:42;;;;;;;9.35;6.18;;;12.50;69.50;;;;;;5016898;28;20032;-86
2023/04/14 07:07:07;;;;;;;8.20;5.70;;;12.50;69.50;;;;;;5016954;28;20408;-86
2023/04/14 07:09:33;;;;;;;7.55;5.47;;;12.50;69.40;;;;;;5017076;28;20021;-87
2023/04/14 07:12:00;;;;;;;8.00;6.05;;;12.50;69.30;;;;;;5017174;28;20029;-86
2023/04/14 07:14:25;;;;;;;8.63;6.07;;;12.60;69.40;;;;;;5016831;28;20021;-86
2023/04/14 07:16:51;;;;;;;8.77;5.35;;;12.60;69.40;;;;;;5016686;28;20124;-86
2023/04/14 07:19:17;;;;;;;8.07;5.78;;;12.60;70.00;;;;;;5016346;28;20026;-86
2023/04/14 07:21:46;;;;;;;7.93;5.57;;;12.60;69.50;;;;;;5016594;28;20026;-86
2023/04/14 07:24:12;;;;;;;8.13;5.47;;;12.70;69.60;;;;;;5018763;28;20025;-89
2023/04/14 07:26:37;;;;;;;8.63;5.40;;;12.70;69.60;;;;;;5042735;28;20052;-88
2023/04/14 07:29:03;;;;;;;8.77;5.60;;;12.70;69.70;;;;;;5024052;28;20044;-88
2023/04/14 07:31:32;;;;;;;7.85;5.13;;;12.70;69.60;;;;;;5024410;28;20044;-88
2023/04/14 07:33:58;;;;;;;8.95;5.50;;;12.70;69.50;;;;;;5024629;28;20029;-88
2023/04/14 07:36:23;;;;;;;9.02;5.30;;;12.70;69.70;;;;;;5024698;28;20064;-86
2023/04/14 07:38:50;;;;;;;8.55;5.88;;;12.80;69.50;;;;;;5023838;28;20056;-87
2023/04/14 07:41:16;;;;;;;8.65;5.43;;;12.80;69.40;;;;;;5024045;28;20100;-86
2023/04/14 07:43:42;;;;;;;7.18;4.88;;;12.80;70.10;;;;;;5042313;28;20058;-88
2023/04/14 07:46:08;;;;;;;8.07;5.40;;;12.80;69.30;;;;;;5024015;28;20026;-86
2023/04/14 07:48:35;;;;;;;9.50;5.25;;;12.80;69.50;;;;;;5024603;28;20022;-87
2023/04/14 07:51:01;;;;;;;10.02;5.78;;;12.90;69.40;;;;;;5023610;28;20041;-86
2023/04/14 07:53:27;;;;;;;7.60;5.20;;;12.90;69.40;;;;;;5023729;28;20026;-86
2023/04/14 07:55:53;;;;;;;7.68;4.90;;;12.90;69.40;;;;;;5017816;28;20067;-86
2023/04/14 07:58:18;;;;;;;7.32;4.93;;;12.90;69.30;;;;;;5018707;28;20048;-86
2023/04/14 08:00:44;;;;;;;9.27;5.28;;;13.00;69.60;;;;;;5019006;28;20034;-86
2023/04/14 08:03:10;;;;;;;8.40;5.55;;;13.00;69.50;;;;;;5023253;28;20026;-87
2023/04/14 08:05:35;;;;;;;7.93;4.70;;;13.00;69.60;;;;;;5022442;28;20021;-87
2023/04/14 08:08:01;;;;;;;8.98;5.30;;;13.00;70.60;;;;;;5021597;28;20029;-85
2023/04/14 08:10:26;;;;;;;7.95;4.82;;;13.00;70.30;;;;;;5039219;28;20542;-88
2023/04/14 08:12:52;;;;;;;8.13;5.20;;;13.00;70.50;;;;;;5017813;28;20025;-86
2023/04/14 08:15:17;;;;;;;8.63;4.50;;;13.10;70.80;;;;;;5034285;28;20026;-86
2023/04/14 08:17:43;;;;;;;7.38;4.68;;;13.10;70.60;;;;;;5015639;28;20041;-85
2023/04/14 08:20:09;;;;;;;9.05;4.93;;;13.10;70.50;;;;;;5026330;28;20041;-87
2023/04/14 08:22:35;;;;;;;8.38;4.93;;;13.10;70.70;;;;;;5026924;28;20059;-87
2023/04/14 08:25:00;;;;;;;7.45;4.40;;;13.20;70.10;;;;;;5026202;28;20034;-87
2023/04/14 08:27:26;;;;;;;8.25;4.85;;;13.10;70.20;;;;;;5025732;28;20136;-88
2023/04/14 08:29:51;;;;;;;7.80;4.82;;;13.20;70.60;;;;;;5024806;28;20062;-88
2023/04/14 08:32:17;;;;;;;9.07;4.75;;;13.20;70.00;;;;;;5025016;28;20025;-87
2023/04/14 08:34:43;;;;;;;9.23;4.60;;;13.20;70.30;;;;;;5024584;28;20017;-86
2023/04/14 08:37:08;;;;;;;8.52;4.72;;;13.20;70.60;;;;;;5024204;28;20025;-88
2023/04/14 08:39:34;;;;;;;9.77;4.95;;;13.30;70.30;;;;;;5022946;28;20029;-86
2023/04/14 08:41:59;;;;;;;8.50;4.80;;;13.30;70.70;;;;;;5023197;28;20490;-87
2023/04/14 08:44:25;;;;;;;9.30;4.35;;;13.30;71.10;;;;;;5023269;28;20021;-86
2023/04/14 08:46:54;;;;;;;7.95;4.53;;;13.30;70.60;;;;;;5040920;28;20026;-87
2023/04/14 08:49:42;;;;;;;7.60;4.57;;;13.30;70.60;;;;;;5022738;28;20041;-86
2023/04/14 08:52:10;;;;;;;7.63;4.40;;;13.40;70.30;;;;;;5022620;28;20413;-86
2023/04/14 08:54:40;;;;;;;7.38;3.97;;;13.40;70.10;;;;;;5022904;28;20395;-87
2023/04/14 08:57:13;;;;;;;8.18;4.68;;;13.40;70.00;;;;;;5021542;28;20445;-86
2023/04/14 08:59:40;;;;;;;8.82;4.30;;;13.40;69.60;;;;;;5021097;28;20060;-86
2023/04/14 09:02:08;;;;;;;9.15;4.53;;;13.40;70.00;;;;;;5021002;28;20029;-87
2023/04/14 09:04:34;;;;;;;8.07;4.25;;;13.40;70.00;;;;;;5020891;28;20029;-86
2023/04/14 09:07:01;;;;;;;7.35;4.05;;;13.40;70.90;;;;;;5020682;28;20502;-86
2023/04/14 09:09:29;;;;;;;7.28;3.80;;;13.30;71.20;;;;;;5021597;28;20021;-87
2023/04/14 09:11:56;;;;;;;7.95;4.40;;;13.40;70.50;;;;;;5015841;28;20017;-85
2023/04/14 09:14:23;;;;;;;7.55;4.35;;;13.40;70.90;;;;;;5017128;28;20394;-86
2023/04/14 09:16:52;;;;;;;7.40;4.15;;;13.50;70.80;;;;;;5019245;28;20040;-87
2023/04/14 09:19:21;;;;;;;8.38;4.35;;;13.50;71.10;;;;;;5018281;28;20107;-86
2023/04/14 09:21:47;;;;;;;7.03;3.95;;;13.50;71.00;;;;;;5016901;28;20029;-86
2023/04/14 09:24:16;;;;;;;6.95;3.90;;;13.50;70.40;;;;;;5015293;28;20030;-86
2023/04/14 09:26:42;;;;;;;8.43;3.97;;;13.50;70.40;;;;;;5014208;28;20025;-86
2023/04/14 09:29:07;;;;;;;7.65;4.03;;;13.50;70.40;;;;;;5035918;28;20018;-87
2023/04/14 09:31:33;;;;;;;7.95;4.00;;;13.50;70.40;;;;;;5016558;28;20026;-88
2023/04/14 09:33:59;;;;;;;6.57;3.70;;;13.60;70.30;;;;;;5014497;28;20025;-86
2023/04/14 09:36:26;;;;;;;5.88;3.58;;;13.50;70.20;;;;;;5017203;28;20029;-86
2023/04/14 09:38:52;;;;;;;7.32;3.90;;;13.60;70.20;;;;;;5017379;28;20032;-86
2023/04/14 09:41:20;;;;;;;7.63;4.10;;;13.60;69.80;;;;;;5017707;28;20101;-86
2023/04/14 09:43:46;;;;;;;8.07;3.97;;;13.60;69.50;;;;;;5017488;28;20096;-86
2023/04/14 09:46:11;;;;;;;7.97;3.80;;;13.60;69.70;;;;;;5016827;28;20068;-87
2023/04/14 09:48:49;;;;;;;7.53;4.18;;;13.60;69.80;;;;;;5016649;28;20398;-87
2023/04/14 09:51:15;;;;;;;7.40;3.70;;;13.60;70.10;;;;;;5016404;28;20084;-87
2023/04/14 09:53:40;;;;;;;7.05;3.85;;;13.60;69.80;;;;;;5016952;28;20021;-86
2023/04/14 09:56:10;;;;;;;7.22;3.63;;;13.60;69.80;;;;;;5016574;28;20025;-86
2023/04/14 09:58:38;;;;;;;9.02;3.95;;;13.60;70.30;;;;;;5016970;28;20082;-85
2023/04/14 10:01:09;;;;;;;7.90;3.70;;;13.50;70.30;;;;;;5016507;28;20390;-86
2023/04/14 10:03:37;;;;;;;7.03;3.40;;;13.60;70.30;;;;;;5016250;28;20076;-85
2023/04/14 10:06:23;;;;;;;7.10;3.42;;;13.60;70.30;;;;;;5015655;28;20060;-87
2023/04/14 10:08:51;;;;;;;8.80;3.90;;;13.60;70.30;;;;;;5031287;28;20045;-84
2023/04/14 10:11:19;;;;;;;6.60;3.55;;;13.60;70.30;;;;;;5013780;28;20018;-86
2023/04/14 10:13:46;;;;;;;7.40;3.55;;;13.60;69.90;;;;;;5014050;28;20079;-85
2023/04/14 10:16:12;;;;;;;8.50;3.65;;;13.70;69.90;;;;;;5014280;28;20462;-85
2023/04/14 10:18:38;;;;;;;7.03;3.20;;;13.70;70.20;;;;;;5031349;28;20056;-85
2023/04/14 10:21:04;;;;;;;7.82;3.25;;;13.70;70.00;;;;;;5015078;28;20120;-86
2023/04/14 10:23:31;;;;;;;7.95;3.53;;;13.70;70.30;;;;;;5015828;28;20112;-86
2023/04/14 10:25:57;;;;;;;7.18;3.30;;;13.70;70.50;;;;;;5015374;28;20026;-86
2023/04/14 10:28:24;;;;;;;7.28;3.00;;;13.70;70.80;;;;;;5033088;28;20030;-86
2023/04/14 10:30:53;;;;;;;7.05;3.50;;;13.70;70.60;;;;;;5014434;28;20029;-85
2023/04/14 10:33:18;;;;;;;6.70;3.22;;;13.70;70.90;;;;;;5017455;28;20498;-87
2023/04/14 10:35:47;;;;;;;6.55;3.00;;;13.70;70.50;;;;;;5018078;28;20035;-88
2023/04/14 10:38:13;;;;;;;7.93;3.15;;;13.70;70.10;;;;;;5017985;28;20021;-87
2023/04/14 10:40:45;;;;;;;7.50;3.10;;;13.70;70.00;;;;;;5017599;28;20433;-87
2023/04/14 10:43:14;;;;;;;9.10;3.17;;;13.70;70.00;;;;;;5017500;28;20083;-87
2023/04/14 10:45:56;;;;;;;6.03;3.15;;;13.60;69.90;;;;;;5017612;28;20400;-88
2023/04/14 10:48:31;;;;;;;7.53;3.20;;;13.70;70.00;;;;;;5017594;28;20032;-87
2023/04/14 10:51:05;;;;;;;6.90;3.10;;;13.70;70.00;;;;;;5017202;28;20025;-87
2023/04/14 10:53:45;;;;;;;6.70;2.90;;;13.70;69.80;;;;;;5017406;28;20018;-87
2023/04/14 10:56:10;;;;;;;7.65;3.40;;;13.70;69.80;;;;;;5018704;28;20062;-89
2023/04/14 10:58:36;;;;;;;6.18;3.08;;;13.70;69.80;;;;;;5017327;28;20107;-87
2023/04/14 11:01:23;;;;;;;5.28;3.10;;;13.70;69.60;;;;;;5017140;28;20025;-87
2023/04/14 11:03:49;;;;;;;7.80;3.15;;;13.70;69.60;;;;;;5017379;28;20449;-87
2023/04/14 11:06:46;;;;;;;8.75;3.30;;;13.70;69.70;;;;;;5017310;28;20616;-87
2023/04/14 11:09:29;;;;;;;7.57;3.08;;;13.70;69.70;;;;;;5019626;28;20026;-88
2023/04/14 11:11:56;;;;;;;7.00;3.15;;;13.70;69.50;;;;;;5022295;28;20029;-88
2023/04/14 11:14:30;;;;;;;8.38;3.35;;;13.60;69.50;;;;;;5021637;28;20040;-88
2023/04/14 11:17:00;;;;;;;7.78;3.45;;;13.60;69.20;;;;;;5022207;28;20112;-88
2023/04/14 11:19:27;;;;;;;6.78;3.22;;;13.60;69.50;;;;;;5021472;28;20044;-88
2023/04/14 11:21:52;;;;;;;7.03;3.28;;;13.60;69.30;;;;;;5021863;28;20112;-88
2023/04/14 11:24:20;;;;;;;8.73;3.30;;;13.60;69.40;;;;;;5021920;28;20052;-88
2023/04/14 11:26:46;;;;;;;7.88;3.55;;;13.60;69.40;;;;;;5023107;28;20035;-88
2023/04/14 11:29:12;;;;;;;7.05;3.47;;;13.60;69.80;;;;;;5021298;28;20018;-87
2023/04/14 11:31:38;;;;;;;7.97;3.40;;;13.60;69.20;;;;;;5016801;28;20033;-87
2023/04/14 11:34:07;;;;;;;8.38;3.50;;;13.60;69.10;;;;;;5021509;28;20394;-87
2023/04/14 11:36:37;;;;;;;7.50;3.25;;;13.60;69.00;;;;;;5020979;28;20112;-87
2023/04/14 11:39:04;;;;;;;10.30;3.60;;;13.60;69.20;;;;;;5020263;28;20064;-88
2023/04/14 11:41:29;;;;;;;8.27;3.88;;;13.60;68.80;;;;;;5020147;28;20029;-88
2023/04/14 11:43:55;;;;;;;7.55;3.65;;;13.60;68.90;;;;;;5020590;28;20025;-88
2023/04/14 11:46:21;;;;;;;7.32;3.63;;;13.60;69.10;;;;;;5020209;28;20030;-88
2023/04/14 11:48:46;;;;;;;8.00;3.70;;;13.60;69.10;;;;;;5019892;28;20017;-88
2023/04/14 11:51:13;;;;;;;8.45;3.88;;;13.60;68.70;;;;;;5016911;28;20394;-88
2023/04/14 11:53:39;;;;;;;10.60;4.28;;;13.60;69.00;;;;;;5017747;28;20022;-88
2023/04/14 11:56:07;;;;;;;6.38;3.45;;;13.60;69.00;;;;;;5037588;28;20018;-87
2023/04/14 11:58:33;;;;;;;6.30;3.38;;;13.60;68.40;;;;;;5036961;28;20095;-88
2023/04/14 12:00:58;;;;;;;8.48;3.80;;;13.50;68.50;;;;;;5018764;28;20486;-89
2023/04/14 12:03:29;;;;;;;8.35;4.50;;;13.60;68.70;;;;;;5019281;28;20401;-88
2023/04/14 12:06:00;;;;;;;7.40;3.80;;;13.50;68.70;;;;;;5022294;28;20029;-88
2023/04/14 12:08:27;;;;;;;8.80;4.03;;;13.60;68.90;;;;;;5021384;28;20029;-88
2023/04/14 12:10:55;;;;;;;7.13;4.03;;;13.60;69.00;;;;;;5022229;28;20071;-88
2023/04/14 12:13:20;;;;;;;7.70;4.10;;;13.60;68.90;;;;;;5023471;28;20021;-88
2023/04/14 12:15:46;;;;;;;7.05;3.80;;;13.60;69.40;;;;;;5021030;28;20425;-88
2023/04/14 12:18:14;;;;;;;8.55;4.10;;;13.60;68.60;;;;;;5019099;28;20064;-88
2023/04/14 12:21:00;;;;;;;7.45;4.07;;;13.60;68.50;;;;;;5017462;28;20057;-89
2023/04/14 12:23:26;;;;;;;7.10;4.18;;;13.60;68.50;;;;;;5021817;28;20367;-88
2023/04/14 12:25:52;;;;;;;8.55;4.20;;;13.60;68.50;;;;;;5021165;28;20105;-88
2023/04/14 12:28:23;;;;;;;9.02;4.72;;;13.60;68.50;;;;;;5021311;28;20482;-87
2023/04/14 12:30:51;;;;;;;8.15;4.13;;;13.60;68.50;;;;;;5038465;28;20032;-88
2023/04/14 12:33:17;;;;;;;7.78;4.13;;;13.60;68.70;;;;;;5020970;28;20055;-89
2023/04/14 12:35:43;;;;;;;9.23;4.72;;;13.50;68.70;;;;;;5017293;28;20184;-89
2023/04/14 12:38:12;;;;;;;7.53;3.95;;;13.50;68.70;;;;;;5017070;28;20032;-89
2023/04/14 12:40:44;;;;;;;8.77;4.53;;;13.50;68.90;;;;;;5019114;28;20033;-88
2023/04/14 12:43:10;;;;;;;9.35;4.63;;;13.50;68.70;;;;;;5037267;28;20478;-87
2023/04/14 12:45:43;;;;;;;7.22;4.38;;;13.50;68.60;;;;;;5018510;28;20033;-88
2023/04/14 12:48:08;;;;;;;9.10;4.43;;;13.50;68.60;;;;;;5019264;28;20108;-86
2023/04/14 12:50:34;;;;;;;7.75;4.32;;;13.50;68.50;;;;;;5016552;28;20505;-86
2023/04/14 12:53:00;;;;;;;7.65;4.47;;;13.50;68.40;;;;;;5018157;28;20068;-86
2023/04/14 12:55:30;;;;;;;7.28;4.00;;;13.50;68.60;;;;;;5034521;28;20506;-88
2023/04/14 12:57:57;;;;;;;8.70;4.50;;;13.50;68.60;;;;;;5016884;28;20363;-87
2023/04/14 13:00:25;;;;;;;9.07;4.18;;;13.50;67.70;;;;;;5035540;28;20025;-87
2023/04/14 13:02:51;;;;;;;7.35;4.18;;;13.50;66.90;;;;;;5018690;28;20494;-87
2023/04/14 13:05:17;;;;;;;7.68;3.95;;;13.50;66.80;;;;;;5018788;28;20057;-86
2023/04/14 13:07:42;;;;;;;7.43;4.50;;;13.60;65.60;;;;;;5019629;28;20030;-86
2023/04/14 13:10:10;;;;;;;7.75;4.32;;;13.60;66.50;;;;;;5018898;28;20036;-86
2023/04/14 13:12:35;;;;;;;8.10;4.50;;;13.60;65.00;;;;;;5018114;28;20079;-87
2023/04/14 13:15:01;;;;;;;9.45;4.28;;;13.60;64.20;;;;;;5014762;28;20069;-85
2023/04/14 13:17:27;;;;;;;8.30;4.32;;;13.60;66.00;;;;;;5018675;28;20022;-86
2023/04/14 13:19:52;;;;;;;8.00;4.20;;;13.50;64.60;;;;;;5017262;28;20120;-86
2023/04/14 13:22:18;;;;;;;7.20;4.30;;;13.50;66.10;;;;;;5032439;28;20028;-86
2023/04/14 13:24:43;;;;;;;8.38;3.95;;;13.50;63.30;;;;;;5032658;28;20497;-86